Latest Weather Observations for Laverton

IDV60901

Issued at 7:55 am EDT Friday 28 November 2014 (issued every 10 minutes, with the page automatically refreshed every 10 minutes)

About weather observations | Map of Melbourne area stations | Latest observations for Melbourne area | Other Formats
Station Details ID: 087031 Name: LAVERTON RAAF Lat: -37.86 Lon: 144.76 Height: 20.1 m
Data from the previous 72 hours. | See also: Recent months at Laverton
Date/Time
EDT
Tmp

°C
App
Tmp
°C
Dew
Point
°C
Rel
Hum
%
Delta-T

°C
Wind Press
QNH
hPa
Press
MSL
hPa
Rain
since
9 am
mm
Dir
 
Spd
km/h
Gust
km/h
Spd
kts
Gust
kts
28/07:30am 13.7 11.5 9.2 74 2.3 SSE 11 17 6 9 1024.0 1024.0 0.0
28/07:00am 13.4 11.5 9.1 75 2.2 S 9 13 5 7 1023.9 1023.9 0.0
28/06:30am 13.3 10.6 9.0 75 2.2 S 13 15 7 8 1023.6 1023.6 0.0
28/06:00am 13.3 10.6 9.0 75 2.2 S 13 19 7 10 1023.3 1023.3 0.0
28/05:30am 13.1 10.7 8.8 75 2.2 S 11 15 6 8 1023.1 1023.1 0.0
28/05:00am 13.1 10.4 9.0 76 2.1 S 13 20 7 11 1022.7 1022.7 0.0
28/04:30am 12.9 10.9 8.8 76 2.1 S 9 15 5 8 1022.4 1022.3 0.0
28/04:00am 12.8 10.0 8.5 75 2.1 SSE 13 19 7 10 1022.4 1022.3 0.0
28/03:30am 12.6 9.8 8.7 77 1.9 SSE 13 22 7 12 1022.3 1022.2 0.0
28/03:00am 12.3 9.8 8.4 77 1.9 SSE 11 17 6 9 1022.4 1022.3 0.0
28/02:30am 12.8 10.4 8.7 76 2.1 SSE 11 15 6 8 1022.6 1022.6 0.0
28/02:00am 12.5 10.1 8.6 77 1.9 S 11 15 6 8 1023.0 1023.0 0.0
28/01:30am 12.4 9.9 8.3 76 2.0 SE 11 15 6 8 1023.3 1023.3 0.0
28/01:00am 13.0 11.0 8.7 75 2.1 SSE 9 17 5 9 1023.8 1023.8 0.0
28/12:30am 13.0 10.7 9.1 77 2.0 SSE 11 17 6 9 1024.1 1024.1 0.0
28/12:00am 12.8 11.3 9.1 78 1.9 SSE 7 9 4 5 1024.2 1024.2 0.0
 
Date/Time
EDT
Tmp

°C
App
Tmp
°C
Dew
Point
°C
Rel
Hum
%
Delta-T

°C
Wind Press
QNH
hPa
Press
MSL
hPa
Rain
since
9 am
mm
Dir
 
Spd
km/h
Gust
km/h
Spd
kts
Gust
kts
27/11:30pm 13.1 11.2 9.2 77 2.0 SE 9 13 5 7 1024.5 1024.5 0.0
27/11:00pm 12.9 11.0 9.0 77 2.0 SE 9 13 5 7 1024.6 1024.6 0.0
27/10:30pm 13.0 10.6 8.7 75 2.2 SE 11 15 6 8 1024.7 1024.7 0.0
27/10:00pm 13.2 10.5 8.9 75 2.2 SSE 13 17 7 9 1024.9 1024.9 0.0
27/09:30pm 13.2 10.2 9.1 76 2.1 S 15 19 8 10 1024.9 1024.9 0.0
27/09:00pm 13.1 10.0 8.8 75 2.1 S 15 20 8 11 1024.6 1024.6 0.0
27/08:30pm 13.5 10.0 8.8 73 2.4 S 17 24 9 13 1024.5 1024.5 0.0
27/08:00pm 14.1 10.0 8.7 70 2.7 S 20 30 11 16 1024.4 1024.4 0.0
27/07:30pm 14.7 10.7 8.9 68 3.0 S 20 28 11 15 1024.4 1024.4 0.0
27/07:00pm 14.9 9.6 8.6 66 3.2 S 26 35 14 19 1024.5 1024.5 0.0
27/06:30pm 15.4 10.1 8.6 64 3.5 S 26 33 14 18 1024.4 1024.4 0.0
27/06:00pm 15.9 10.6 8.6 62 3.7 S 26 35 14 19 1024.4 1024.4 0.0
27/05:30pm 15.8 10.1 8.5 62 3.7 S 28 37 15 20 1024.4 1024.4 0.0
27/05:00pm 16.5 11.3 8.7 60 4.0 S 26 37 14 20 1024.6 1024.6 0.0
27/04:30pm 16.6 11.3 8.6 59 4.1 S 26 35 14 19 1024.5 1024.5 0.0
27/04:00pm 16.6 10.8 8.1 57 4.3 S 28 35 15 19 1024.8 1024.8 0.0
27/03:30pm 16.9 11.9 8.1 56 4.5 S 24 37 13 20 1024.8 1024.8 0.0
27/03:00pm 16.8 12.0 8.8 59 4.1 S 24 35 13 19 1025.1 1025.1 0.0
27/02:30pm 16.6 12.0 8.1 57 4.3 S 22 30 12 16 1025.3 1025.3 0.0
27/02:00pm 17.1 12.6 8.5 57 4.4 S 22 32 12 17 1025.4 1025.4 0.0
27/01:30pm 17.3 13.1 8.2 55 4.6 S 20 28 11 15 1025.4 1025.4 0.0
27/01:00pm 15.9 10.7 7.4 57 4.2 SSE 24 35 13 19 1025.7 1025.7 0.0
27/12:30pm 16.2 11.8 7.2 55 4.5 SSE 20 30 11 16 1025.8 1025.8 0.0
27/12:00pm 16.0 10.8 7.2 56 4.3 S 24 30 13 16 1026.1 1026.1 0.0
27/11:30am 16.2 11.8 7.4 56 4.4 S 20 28 11 15 1026.2 1026.2 0.0
27/11:00am 15.2 10.7 7.0 58 4.0 SSE 20 30 11 16 1026.3 1026.3 0.0
27/10:30am 15.0 9.9 6.0 55 4.3 SSE 22 32 12 17 1026.4 1026.4 0.0
27/10:00am 15.1 10.7 6.7 57 4.1 SSE 19 24 10 13 1026.4 1026.4 0.0
27/09:30am 14.7 10.2 6.3 57 4.0 S 19 28 10 15 1026.4 1026.4 0.0
27/09:00am 14.3 9.8 6.2 58 3.9 S 19 26 10 14 1026.4 1026.4 0.0
27/08:30am 14.0 9.8 5.9 58 3.9 S 17 24 9 13 1026.1 1026.1 0.0
27/08:00am 13.8 10.5 6.2 60 3.6 SSE 13 17 7 9 1026.0 1026.0 0.0
27/07:30am 13.4 9.2 5.8 60 3.6 SSE 17 24 9 13 1025.8 1025.8 0.0
27/07:00am 13.2 9.4 5.9 61 3.4 SE 15 22 8 12 1025.4 1025.4 0.0
27/06:30am 12.9 9.4 5.6 61 3.4 SSE 13 19 7 10 1025.2 1025.2 0.0
27/06:00am 13.0 9.2 5.7 61 3.4 SSE 15 24 8 13 1024.9 1024.9 0.0
27/05:30am 13.0 9.6 6.1 63 3.3 SSE 13 24 7 13 1024.5 1024.5 0.0
27/05:00am 13.0 10.5 6.4 64 3.1 SSE 9 15 5 8 1024.2 1024.2 0.0
27/04:30am 13.0 9.2 5.9 62 3.3 SSE 15 24 8 13 1024.2 1024.2 0.0
27/04:00am 13.2 9.5 6.1 62 3.4 SSE 15 20 8 11 1023.8 1023.8 0.0
27/03:30am 13.4 9.3 6.0 61 3.5 S 17 20 9 11 1023.7 1023.7 0.0
27/03:00am 13.6 10.2 6.0 60 3.6 S 13 20 7 11 1023.8 1023.8 0.0
27/02:30am 13.6 10.0 6.7 63 3.3 S 15 22 8 12 1023.7 1023.7 0.0
27/02:00am 13.3 10.0 6.4 63 3.3 SW 13 17 7 9 1023.9 1023.9 0.0
27/01:30am 13.3 10.0 6.4 63 3.3 SW 13 19 7 10 1024.1 1024.1 0.0
27/01:00am 13.2 10.2 6.1 62 3.4 SSW 11 15 6 8 1024.4 1024.4 0.0
27/12:30am 13.0 9.6 5.9 62 3.3 S 13 20 7 11 1024.7 1024.7 0.0
27/12:00am 13.5 9.0 5.9 60 3.6 S 19 28 10 15 1024.8 1024.8 0.0
 
Date/Time
EDT
Tmp

°C
App
Tmp
°C
Dew
Point
°C
Rel
Hum
%
Delta-T

°C
Wind Press
QNH
hPa
Press
MSL
hPa
Rain
since
9 am
mm
Dir
 
Spd
km/h
Gust
km/h
Spd
kts
Gust
kts
26/11:30pm 13.8 9.2 6.4 61 3.6 S 20 26 11 14 1024.8 1024.8 0.0
26/11:00pm 14.0 9.5 7.1 63 3.3 S 20 30 11 16 1024.7 1024.7 0.0
26/10:30pm 14.1 9.9 7.4 64 3.3 S 19 28 10 15 1024.7 1024.7 0.0
26/10:00pm 14.3 10.0 8.0 66 3.1 S 20 28 11 15 1024.4 1024.4 0.0
26/09:30pm 14.3 10.7 8.3 67 3.0 S 17 22 9 12 1024.1 1024.1 0.0
26/09:00pm 14.4 10.4 8.4 67 3.0 S 19 26 10 14 1023.9 1023.9 0.0
26/08:30pm 14.4 10.2 8.1 66 3.1 S 20 33 11 18 1023.6 1023.6 0.0
26/08:00pm 14.6 10.7 8.8 68 2.9 S 19 30 10 16 1023.6 1023.6 0.0
26/07:30pm 14.7 11.0 9.3 70 2.8 S 19 26 10 14 1023.3 1023.3 0.0
26/07:00pm 15.2 11.2 9.1 67 3.1 S 20 28 11 15 1023.0 1023.0 0.0
26/06:30pm 14.6 10.4 9.8 73 2.5 S 22 32 12 17 1022.7 1022.7 0.0
26/06:00pm 14.7 11.4 10.9 78 2.0 S 19 33 10 18 1022.4 1022.3 0.0
26/05:30pm 14.6 11.3 10.8 78 2.0 S 19 30 10 16 1022.4 1022.3 0.0
26/05:00pm 14.6 10.4 11.0 79 1.9 S 24 32 13 17 1022.3 1022.2 0.0
26/04:30pm 15.2 12.2 11.8 80 1.8 S 19 30 10 16 1022.2 1022.1 0.0
26/04:25pm 15.2 12.2 12.0 81 1.7 S 19 30 10 16 1022.2 1022.1 0.0
26/04:00pm 14.6 10.6 11.9 84 1.5 S 24 35 13 19 1022.2 1022.1 0.0
26/03:32pm 15.6 12.0 12.0 79 2.0 SSE 22 33 12 18 1022.0 1021.9 0.0
26/03:30pm 15.7 12.6 12.1 79 2.0 SSE 20 33 11 18 1022.0 1021.9 0.0
26/03:00pm 16.3 12.7 10.4 68 3.1 SSE 20 28 11 15 1021.9 1021.8 0.0
26/02:30pm 17.4 15.8 10.3 63 3.8 ESE 9 15 5 8 1021.5 1021.4 0.0
26/02:00pm 18.0 16.2 9.6 58 4.4 S 9 13 5 7 1021.5 1021.4 0.0
26/01:30pm 18.1 16.0 9.7 58 4.4 SSW 11 17 6 9 1021.5 1021.4 0.0
26/01:00pm 18.1 16.3 9.5 57 4.5 ESE 9 19 5 10 1021.6 1021.5 0.0
26/12:30pm 17.5 15.1 10.1 62 3.9 S 13 20 7 11 1021.7 1021.6 0.0
26/12:00pm 17.4 14.8 9.3 59 4.2 SSW 13 19 7 10 1021.7 1021.6 0.0
26/11:30am 18.1 15.5 9.2 56 4.7 SW 13 20 7 11 1021.8 1021.7 0.0
26/11:00am 17.5 14.5 9.2 58 4.3 SW 15 19 8 10 1021.7 1021.6 0.0
26/10:30am 16.7 14.0 8.9 60 4.0 SSW 13 22 7 12 1021.7 1021.6 0.0
26/10:00am 15.6 11.5 8.6 63 3.5 SSW 20 22 11 12 1021.9 1021.8 0.0
26/09:30am 15.3 11.7 8.5 64 3.4 WSW 17 28 9 15 1022.0 1021.9 0.0
26/09:00am 14.9 12.4 8.4 65 3.3 W 11 20 6 11 1021.9 1021.8 0.0
26/08:30am 13.6 11.5 8.4 71 2.6 WNW 9 13 5 7 1021.8 1021.7 0.0
26/08:00am 12.2 9.4 8.5 78 1.8 NW 13 17 7 9 1021.6 1021.5 0.0
26/07:30am 11.2 8.8 8.8 85 1.2 NW 11 13 6 7 1021.5 1021.4 0.0
26/07:00am 10.1 7.6 8.2 88 0.9 NW 11 15 6 8 1021.1 1021.0 0.0
26/06:30am 9.3 6.3 7.6 89 0.8 NW 13 15 7 8 1021.0 1020.9 0.0
26/06:00am 8.8 6.0 7.1 89 0.8 NW 11 13 6 7 1020.7 1020.6 0.0
26/05:30am 8.8 5.7 7.1 89 0.8 NW 13 15 7 8 1020.5 1020.4 0.0
26/05:00am 8.6 5.8 6.9 89 0.8 NW 11 13 6 7 1020.3 1020.2 0.0
26/04:30am 8.0 5.4 6.3 89 0.8 NW 9 13 5 7 1020.3 1020.2 0.0
26/04:00am 8.2 5.6 6.3 88 0.9 NW 9 13 5 7 1020.4 1020.3 0.0
26/03:30am 8.5 5.3 6.8 89 0.8 NW 13 15 7 8 1020.4 1020.3 0.0
26/03:00am 8.6 5.3 6.6 87 0.9 WNW 13 15 7 8 1020.3 1020.2 0.0
26/02:30am 8.8 5.5 6.4 85 1.1 NW 13 15 7 8 1020.6 1020.5 0.0
26/02:00am 9.2 6.3 6.6 84 1.2 NW 11 11 6 6 1020.9 1020.8 0.0
26/01:30am 9.5 7.1 6.8 83 1.3 NW 9 9 5 5 1021.1 1021.0 0.0
26/01:00am 10.1 7.7 7.0 81 1.5 NNW 9 11 5 6 1021.3 1021.2 0.0
26/12:30am 11.0 8.6 6.9 76 1.9 NNW 9 11 5 6 1021.5 1021.4 0.0
26/12:00am 12.3 9.9 7.0 70 2.5 NW 9 9 5 5 1021.7 1021.6 0.0
 
Date/Time
EDT
Tmp

°C
App
Tmp
°C
Dew
Point
°C
Rel
Hum
%
Delta-T

°C
Wind Press
QNH
hPa
Press
MSL
hPa
Rain
since
9 am
mm
Dir
 
Spd
km/h
Gust
km/h
Spd
kts
Gust
kts
25/11:30pm 13.2 10.8 7.2 67 2.9 WNW 9 11 5 6 1021.8 1021.7 0.0
25/11:00pm 13.4 11.6 7.2 66 3.0 SSW 6 7 3 4 1021.9 1021.8 0.0
25/10:30pm 13.7 11.0 7.2 65 3.2 SW 11 17 6 9 1021.9 1021.8 0.0
25/10:00pm 13.9 10.8 7.2 64 3.3 SW 13 19 7 10 1021.7 1021.6 0.0
25/09:30pm 14.7 10.8 7.3 61 3.6 SW 17 24 9 13 1021.3 1021.2 0.0
25/09:00pm 15.3 11.1 7.3 59 3.9 SW 19 24 10 13 1020.9 1020.8 0.0
25/08:30pm 16.4 12.0 7.3 55 4.5 SW 20 30 11 16 1020.5 1020.4 0.0
25/08:00pm 18.0 14.5 7.1 49 5.4 SSW 15 26 8 14 1020.1 1020.0 0.0
25/07:30pm 16.9 13.9 10.5 66 3.4 ESE 17 28 9 15 1019.8 1019.7 0.0
25/07:00pm 16.9 13.4 11.0 68 3.2 SE 20 28 11 15 1019.4 1019.3 0.0
25/06:30pm 17.0 13.6 10.6 66 3.4 SE 19 30 10 16 1018.9 1018.8 0.0
25/06:00pm 16.8 13.1 10.2 65 3.5 SSE 20 28 11 15 1018.7 1018.6 0.0
25/05:30pm 18.7 14.9 9.8 56 4.7 S 20 24 11 13 1018.6 1018.5 0.0
25/05:00pm 21.0 15.6 6.5 39 7.3 SW 24 35 13 19 1018.4 1018.3 0.0
25/04:30pm 21.6 16.0 5.5 35 8.0 WSW 24 32 13 17 1018.4 1018.3 0.0
25/04:00pm 20.1 14.4 5.0 37 7.4 WSW 24 39 13 21 1018.5 1018.4 0.0
25/03:30pm 20.7 14.7 5.1 36 7.7 WSW 26 37 14 20 1018.6 1018.5 0.0
25/03:00pm 20.7 14.7 5.1 36 7.6 SW 26 39 14 21 1018.6 1018.5 0.0
25/02:30pm 20.5 14.4 4.9 36 7.6 W 26 37 14 20 1018.6 1018.5 0.0
25/02:00pm 20.5 14.7 4.5 35 7.7 W 24 41 13 22 1018.6 1018.5 0.0
25/01:30pm 19.9 13.4 4.8 37 7.3 WSW 28 37 15 20 1018.5 1018.4 0.0
25/01:00pm 18.8 12.7 4.9 40 6.7 WSW 26 35 14 19 1018.7 1018.6 0.0
25/12:30pm 19.0 13.3 6.8 45 6.1 WSW 26 39 14 21 1018.7 1018.6 0.0
25/12:00pm 18.3 12.9 6.2 45 6.0 WSW 24 35 13 19 1018.8 1018.7 0.0
25/11:30am 17.7 12.0 6.9 49 5.4 W 26 37 14 20 1019.0 1018.9 0.0
25/11:00am 17.6 12.4 7.1 50 5.2 W 24 37 13 20 1018.9 1018.8 0.0
25/10:30am 17.2 12.0 7.3 52 5.0 W 24 33 13 18 1019.0 1018.9 0.0
25/10:00am 16.1 10.3 8.1 59 4.0 WSW 28 43 15 23 1019.0 1018.9 0.0
25/09:30am 15.6 10.7 8.4 62 3.6 W 24 35 13 19 1018.9 1018.8 0.0
25/09:00am 14.9 9.6 8.4 65 3.3 W 26 37 14 20 1018.6 1018.5 9.6
25/08:30am 14.7 10.6 8.6 67 3.1 W 20 30 11 16 1018.1 1018.0 9.6
25/08:00am 13.3 9.8 8.8 74 2.3 WNW 17 22 9 12 1017.6 1017.5 9.6

Latest Capital City Observations: Canberra | Sydney | Melbourne | Brisbane | Adelaide | Perth | Hobart | Darwin

Other Formats:

Comma delimited format used in spreadsheet applications
http://www.bom.gov.au/fwo/IDV60901/IDV60901.94865.axf

JavaScript Object Notation format (JSON) in row-major order
http://www.bom.gov.au/fwo/IDV60901/IDV60901.94865.json